Time;durP1;ratioP1;P1;durP2;ratioP2;P2;SDS_P1;SDS_P2;PMS_P1;PMS_P2;Temp;Humidity;BMP_temperature;BMP_pressure;BME280_temperature;BME280_humidity;BME280_pressure;Samples;Min_cycle;Max_cycle;Signal;HPM_P1;HPM_P2
2022/07/10 00:00:06;;;;;;;10.77;2.17;;;14.30;99.90;;;;;;5048695;28;20028;-47
2022/07/10 00:02:31;;;;;;;9.52;2.33;;;14.30;99.90;;;;;;5047173;28;20086;-46
2022/07/10 00:04:57;;;;;;;6.40;1.83;;;14.30;99.90;;;;;;5047665;28;20032;-47
2022/07/10 00:07:22;;;;;;;6.00;1.70;;;14.30;99.90;;;;;;5049048;28;20488;-47
2022/07/10 00:09:48;;;;;;;5.30;1.40;;;14.20;99.90;;;;;;5048640;28;20024;-46
2022/07/10 00:12:13;;;;;;;4.93;2.03;;;14.20;99.90;;;;;;5048675;28;20025;-45
2022/07/10 00:14:39;;;;;;;10.05;1.77;;;14.20;99.90;;;;;;5047762;28;20079;-46
2022/07/10 00:17:04;;;;;;;5.57;1.63;;;14.20;99.90;;;;;;5048790;28;20033;-48
2022/07/10 00:19:30;;;;;;;6.13;1.55;;;14.30;99.90;;;;;;5048154;28;20025;-46
2022/07/10 00:21:56;;;;;;;4.88;1.42;;;14.20;99.90;;;;;;5048362;28;20021;-46
2022/07/10 00:24:21;;;;;;;6.90;2.00;;;14.20;99.90;;;;;;5047624;28;20108;-46
2022/07/10 00:26:47;;;;;;;10.65;2.78;;;14.20;99.90;;;;;;5044967;28;20100;-47
2022/07/10 00:29:13;;;;;;;8.90;2.35;;;14.20;99.90;;;;;;5042926;28;20017;-47
2022/07/10 00:31:39;;;;;;;10.60;1.90;;;14.20;99.90;;;;;;5048325;28;20102;-45
2022/07/10 00:34:04;;;;;;;10.95;1.80;;;14.30;99.90;;;;;;5047503;28;20044;-46
2022/07/10 00:36:30;;;;;;;12.15;2.38;;;14.20;99.90;;;;;;5048266;28;20342;-46
2022/07/10 00:38:56;;;;;;;7.93;2.03;;;14.20;99.90;;;;;;5048099;28;20551;-46
2022/07/10 00:41:21;;;;;;;8.70;2.03;;;14.20;99.90;;;;;;5048224;28;20035;-46
2022/07/10 00:43:58;;;;;;;11.00;1.88;;;14.20;99.90;;;;;;5048117;28;20033;-49
2022/07/10 00:46:26;;;;;;;13.85;2.13;;;14.20;99.90;;;;;;5048148;28;20025;-44
2022/07/10 00:48:51;;;;;;;6.15;1.40;;;14.20;99.90;;;;;;5051895;28;20021;-47
2022/07/10 00:51:18;;;;;;;7.03;1.83;;;14.10;99.90;;;;;;5051880;28;20104;-49
2022/07/10 00:53:46;;;;;;;13.27;2.00;;;14.10;99.90;;;;;;5050833;28;20021;-46
2022/07/10 00:56:14;;;;;;;8.23;2.10;;;14.00;99.90;;;;;;5042774;28;20422;-47
2022/07/10 00:58:41;;;;;;;5.57;2.10;;;14.00;99.90;;;;;;5052014;28;20549;-48
2022/07/10 01:01:07;;;;;;;9.65;1.65;;;14.00;99.90;;;;;;5052005;28;20100;-45
2022/07/10 01:03:32;;;;;;;15.55;2.08;;;13.90;99.90;;;;;;5051821;28;20317;-46
2022/07/10 01:05:58;;;;;;;9.95;2.38;;;13.90;99.90;;;;;;5051164;28;20029;-45
2022/07/10 01:08:24;;;;;;;18.27;2.70;;;13.90;99.90;;;;;;5051649;28;20104;-48
2022/07/10 01:10:50;;;;;;;16.08;2.03;;;13.90;99.90;;;;;;5051281;28;20025;-46
2022/07/10 01:13:15;;;;;;;11.18;1.90;;;13.90;99.90;;;;;;5051639;28;20106;-46
2022/07/10 01:15:41;;;;;;;3.97;1.33;;;13.80;99.90;;;;;;5050948;28;20490;-46
2022/07/10 01:18:07;;;;;;;4.85;1.33;;;13.80;99.90;;;;;;5051941;28;20024;-46
2022/07/10 01:20:33;;;;;;;7.80;1.50;;;13.70;99.90;;;;;;5050075;28;20597;-46
2022/07/10 01:22:59;;;;;;;7.32;1.70;;;13.70;99.90;;;;;;5051494;28;20082;-47
2022/07/10 01:25:25;;;;;;;10.13;1.23;;;13.70;99.90;;;;;;5042898;28;20022;-45
2022/07/10 01:27:51;;;;;;;12.25;1.88;;;13.60;99.90;;;;;;5051109;28;20057;-48
2022/07/10 01:30:17;;;;;;;6.68;1.60;;;13.60;99.90;;;;;;5051168;28;20019;-46
2022/07/10 01:32:43;;;;;;;10.45;2.03;;;13.50;99.90;;;;;;5051199;28;20071;-48
2022/07/10 01:35:09;;;;;;;13.80;2.28;;;13.50;99.90;;;;;;5050456;28;20560;-47
2022/07/10 01:37:35;;;;;;;7.93;1.52;;;13.50;99.90;;;;;;5051138;28;20025;-48
2022/07/10 01:40:00;;;;;;;6.75;1.88;;;13.40;99.90;;;;;;5050920;28;20368;-48
2022/07/10 01:42:26;;;;;;;8.32;1.60;;;13.40;99.90;;;;;;5050850;28;20055;-44
2022/07/10 01:44:51;;;;;;;7.57;1.50;;;13.40;99.90;;;;;;5050581;28;20033;-45
2022/07/10 01:47:17;;;;;;;5.75;1.85;;;13.40;99.90;;;;;;5050818;28;20086;-45
2022/07/10 01:49:43;;;;;;;5.75;2.10;;;13.30;99.90;;;;;;5051345;28;20028;-46
2022/07/10 01:52:09;;;;;;;5.70;1.35;;;13.30;99.90;;;;;;5051101;28;20442;-45
2022/07/10 01:54:35;;;;;;;5.00;1.45;;;13.30;99.90;;;;;;5048773;28;20025;-46
2022/07/10 01:57:00;;;;;;;5.20;1.48;;;13.30;99.90;;;;;;5043395;28;20087;-46
2022/07/10 01:59:26;;;;;;;6.43;1.63;;;13.30;99.90;;;;;;5050668;28;20128;-45
2022/07/10 02:01:51;;;;;;;6.95;1.45;;;13.30;99.90;;;;;;5050454;28;20059;-45
2022/07/10 02:07:01;;;;;;;4.40;1.40;;;13.30;99.90;;;;;;5050935;28;20114;-46
2022/07/10 02:09:27;;;;;;;6.00;1.85;;;13.20;99.90;;;;;;5050397;28;20033;-46
2022/07/10 02:11:52;;;;;;;7.30;1.63;;;13.20;99.90;;;;;;5050641;28;20029;-45
2022/07/10 02:14:17;;;;;;;6.70;1.92;;;13.20;99.90;;;;;;5049698;28;20072;-45
2022/07/10 02:16:44;;;;;;;5.55;1.58;;;13.20;99.90;;;;;;5050284;28;20025;-45
2022/07/10 02:19:10;;;;;;;7.05;1.80;;;13.20;99.90;;;;;;5050844;28;20032;-45
2022/07/10 02:21:35;;;;;;;7.57;1.77;;;13.20;99.90;;;;;;5050446;28;20029;-46
2022/07/10 02:24:01;;;;;;;6.07;1.98;;;13.30;99.90;;;;;;5048363;28;20072;-47
2022/07/10 02:26:26;;;;;;;8.50;1.83;;;13.20;99.90;;;;;;5041897;28;20375;-48
2022/07/10 02:28:52;;;;;;;12.35;1.92;;;13.20;99.90;;;;;;5050480;28;20040;-46
2022/07/10 02:31:17;;;;;;;8.15;2.15;;;13.10;99.90;;;;;;5049001;28;20051;-45
2022/07/10 02:33:43;;;;;;;5.47;1.55;;;13.20;99.90;;;;;;5050169;28;20329;-45
2022/07/10 02:36:08;;;;;;;5.15;1.73;;;13.20;99.90;;;;;;5049565;28;20048;-45
2022/07/10 02:38:34;;;;;;;4.88;1.60;;;13.20;99.90;;;;;;5048604;28;20522;-45
2022/07/10 02:40:59;;;;;;;9.07;1.92;;;13.20;99.90;;;;;;5049595;28;20112;-48
2022/07/10 02:43:25;;;;;;;8.10;1.92;;;13.20;99.90;;;;;;5049824;28;20035;-45
2022/07/10 02:45:50;;;;;;;11.15;2.22;;;13.30;99.90;;;;;;5049058;28;20585;-46
2022/07/10 02:48:17;;;;;;;5.07;1.70;;;13.20;99.90;;;;;;5049802;28;20470;-46
2022/07/10 02:50:43;;;;;;;9.40;2.90;;;13.30;99.90;;;;;;5049929;28;20107;-45
2022/07/10 02:53:09;;;;;;;5.57;1.65;;;13.20;99.90;;;;;;5049693;28;20115;-46
2022/07/10 02:55:34;;;;;;;10.07;2.03;;;13.30;99.90;;;;;;5040158;28;20021;-44
2022/07/10 02:58:00;;;;;;;14.57;1.80;;;13.30;99.90;;;;;;5049542;28;20064;-44
2022/07/10 03:00:29;;;;;;;4.82;2.17;;;13.30;99.90;;;;;;5049334;28;20033;-46
2022/07/10 03:02:55;;;;;;;7.97;2.15;;;13.30;99.90;;;;;;5049400;28;20024;-46
2022/07/10 03:05:21;;;;;;;7.70;1.90;;;13.20;99.90;;;;;;5048747;28;20517;-45
2022/07/10 03:07:47;;;;;;;9.77;1.88;;;13.20;99.90;;;;;;5049382;28;20628;-45
2022/07/10 03:10:13;;;;;;;7.80;1.73;;;13.20;99.90;;;;;;5048722;28;20033;-45
2022/07/10 03:12:38;;;;;;;6.88;1.95;;;13.20;99.90;;;;;;5049233;28;20511;-45
2022/07/10 03:15:07;;;;;;;8.70;2.33;;;13.20;99.90;;;;;;5048492;28;20373;-45
2022/07/10 03:17:32;;;;;;;11.68;2.13;;;13.20;99.90;;;;;;5049230;28;20482;-47
2022/07/10 03:19:58;;;;;;;7.07;1.60;;;13.10;99.90;;;;;;5049379;28;20110;-45
2022/07/10 03:22:23;;;;;;;7.65;2.65;;;13.00;99.90;;;;;;5049115;28;20033;-46
2022/07/10 03:24:49;;;;;;;9.75;2.25;;;13.00;99.90;;;;;;5045387;28;20022;-48
2022/07/10 03:27:15;;;;;;;13.35;2.90;;;12.90;99.90;;;;;;5044089;28;20072;-45
2022/07/10 03:29:40;;;;;;;9.05;2.20;;;12.80;99.90;;;;;;5049126;28;20530;-46
2022/07/10 03:32:06;;;;;;;10.20;2.45;;;12.80;99.90;;;;;;5049257;28;20029;-44
2022/07/10 03:34:33;;;;;;;8.68;1.90;;;12.90;99.90;;;;;;5048349;28;20032;-45
2022/07/10 03:37:00;;;;;;;10.98;2.45;;;12.80;99.90;;;;;;5048993;28;20059;-45
2022/07/10 03:39:26;;;;;;;13.60;2.72;;;12.80;99.90;;;;;;5048578;28;20048;-45
2022/07/10 03:41:51;;;;;;;7.20;1.80;;;12.80;99.90;;;;;;5048695;28;20056;-44
2022/07/10 03:44:17;;;;;;;11.18;2.22;;;12.80;99.90;;;;;;5046791;28;20017;-45
2022/07/10 03:46:42;;;;;;;12.25;2.10;;;12.90;99.90;;;;;;5048702;28;20028;-45
2022/07/10 03:49:08;;;;;;;8.90;2.47;;;12.90;99.90;;;;;;5048749;28;20021;-44
2022/07/10 03:51:33;;;;;;;6.45;1.92;;;12.90;99.90;;;;;;5048930;28;20025;-45
2022/07/10 03:53:59;;;;;;;10.90;2.22;;;12.90;99.90;;;;;;5047173;28;20231;-47
2022/07/10 03:59:08;;;;;;;9.90;2.20;;;12.80;99.90;;;;;;5049161;28;20059;-45
2022/07/10 04:01:34;;;;;;;6.72;1.88;;;12.80;99.90;;;;;;5048723;28;20467;-45
2022/07/10 04:03:59;;;;;;;13.82;2.13;;;12.90;99.90;;;;;;5048477;28;20029;-45
2022/07/10 04:06:25;;;;;;;8.55;1.92;;;12.90;99.90;;;;;;5048956;28;20108;-47
2022/07/10 04:08:51;;;;;;;8.55;2.38;;;12.90;99.90;;;;;;5048805;28;20035;-44
2022/07/10 04:11:17;;;;;;;7.75;1.90;;;12.90;99.90;;;;;;5046984;28;20079;-45
2022/07/10 04:13:42;;;;;;;6.63;1.70;;;13.00;99.90;;;;;;5048433;28;20044;-47
2022/07/10 04:16:12;;;;;;;10.80;2.05;;;13.00;99.90;;;;;;5048048;28;20059;-44
2022/07/10 04:18:40;;;;;;;13.25;2.20;;;13.00;99.90;;;;;;5048617;28;20029;-46
2022/07/10 04:21:06;;;;;;;6.20;2.15;;;13.00;99.90;;;;;;5049762;28;20025;-45
2022/07/10 04:23:34;;;;;;;10.32;2.90;;;13.00;99.90;;;;;;5052396;28;20028;-44
2022/07/10 04:26:00;;;;;;;8.95;1.60;;;13.00;99.90;;;;;;5043605;28;20021;-45
2022/07/10 04:28:26;;;;;;;6.95;1.70;;;13.00;99.90;;;;;;5052355;28;20428;-45
2022/07/10 04:30:52;;;;;;;9.68;1.85;;;13.10;99.90;;;;;;5052446;28;20029;-44
2022/07/10 04:33:17;;;;;;;6.50;1.98;;;13.00;99.90;;;;;;5052553;28;20051;-44
2022/07/10 04:35:43;;;;;;;9.43;1.60;;;13.00;99.90;;;;;;5051759;28;20025;-45
2022/07/10 04:38:08;;;;;;;8.95;2.30;;;13.00;99.90;;;;;;5052222;28;20037;-45
2022/07/10 04:40:34;;;;;;;6.43;2.08;;;13.10;99.90;;;;;;5051830;28;20036;-44
2022/07/10 04:42:59;;;;;;;6.20;2.38;;;13.00;99.90;;;;;;5052765;28;20038;-44
2022/07/10 04:45:25;;;;;;;7.20;1.70;;;13.00;99.90;;;;;;5051476;28;20021;-44
2022/07/10 04:47:51;;;;;;;5.88;2.05;;;13.00;99.90;;;;;;5052019;28;20024;-44
2022/07/10 04:50:16;;;;;;;8.85;1.80;;;13.10;99.90;;;;;;5052038;28;20040;-45
2022/07/10 04:52:42;;;;;;;8.25;1.95;;;13.10;99.90;;;;;;5052562;28;20029;-48
2022/07/10 04:55:07;;;;;;;5.60;1.90;;;13.10;99.90;;;;;;5045562;28;20033;-45
2022/07/10 04:57:33;;;;;;;7.10;1.70;;;13.20;99.90;;;;;;5049141;28;20028;-45
2022/07/10 04:59:59;;;;;;;8.75;1.83;;;13.20;99.90;;;;;;5051927;28;20029;-45
2022/07/10 05:02:25;;;;;;;7.50;1.42;;;13.20;99.90;;;;;;5051850;28;20025;-45
2022/07/10 05:04:50;;;;;;;5.53;1.42;;;13.20;99.90;;;;;;5051259;28;20028;-45
2022/07/10 05:07:16;;;;;;;10.23;1.98;;;13.20;99.90;;;;;;5052192;28;20482;-45
2022/07/10 05:09:41;;;;;;;6.75;2.00;;;13.30;99.90;;;;;;5051599;28;20044;-45
2022/07/10 05:12:07;;;;;;;7.95;1.98;;;13.30;99.90;;;;;;5052098;28;20535;-45
2022/07/10 05:14:33;;;;;;;7.32;1.80;;;13.30;99.90;;;;;;5050961;28;20466;-45
2022/07/10 05:16:58;;;;;;;7.55;1.80;;;13.20;99.90;;;;;;5051529;28;20021;-44
2022/07/10 05:19:24;;;;;;;9.05;1.92;;;13.20;99.90;;;;;;5051384;28;20112;-46
2022/07/10 05:21:49;;;;;;;4.45;1.48;;;13.30;99.90;;;;;;5051687;28;20090;-45
2022/07/10 05:24:15;;;;;;;8.82;1.60;;;13.30;99.90;;;;;;5050617;28;20078;-45
2022/07/10 05:26:41;;;;;;;8.90;1.90;;;13.40;99.90;;;;;;5042849;28;20029;-45
2022/07/10 05:29:06;;;;;;;6.85;2.10;;;13.40;99.90;;;;;;5051344;28;20497;-46
2022/07/10 05:31:32;;;;;;;9.93;2.33;;;13.40;99.90;;;;;;5051007;28;20064;-44
2022/07/10 05:33:57;;;;;;;8.13;1.60;;;13.60;99.90;;;;;;5050898;28;20032;-45
2022/07/10 05:36:23;;;;;;;5.20;1.63;;;13.50;99.90;;;;;;5050665;28;20504;-44
2022/07/10 05:38:48;;;;;;;10.52;1.88;;;13.60;99.90;;;;;;5050952;28;20025;-45
2022/07/10 05:41:14;;;;;;;6.13;1.58;;;13.70;99.90;;;;;;5050629;28;20029;-47
2022/07/10 05:43:39;;;;;;;8.63;2.20;;;13.90;99.90;;;;;;5049572;28;20029;-46
2022/07/10 05:46:05;;;;;;;6.90;1.70;;;13.80;99.90;;;;;;5050407;28;20378;-46
2022/07/10 05:48:31;;;;;;;8.15;1.70;;;13.90;99.90;;;;;;5051042;28;20490;-45
2022/07/10 05:50:57;;;;;;;4.32;1.50;;;14.00;99.90;;;;;;5050870;28;20025;-46
2022/07/10 05:53:22;;;;;;;8.90;1.75;;;14.10;99.90;;;;;;5050663;28;20028;-47
2022/07/10 05:55:48;;;;;;;4.70;1.55;;;14.10;99.90;;;;;;5041464;28;20037;-47
2022/07/10 05:58:14;;;;;;;9.32;1.88;;;14.10;99.90;;;;;;5050800;28;20121;-45
2022/07/10 06:00:40;;;;;;;7.68;2.25;;;14.10;99.90;;;;;;5050818;28;20076;-45
2022/07/10 06:03:05;;;;;;;11.38;2.15;;;14.20;99.90;;;;;;5049380;28;20482;-45
2022/07/10 06:05:31;;;;;;;5.40;1.90;;;14.20;99.90;;;;;;5050034;28;20092;-48
2022/07/10 06:07:56;;;;;;;9.68;2.63;;;14.30;99.90;;;;;;5050495;28;20119;-47
2022/07/10 06:10:22;;;;;;;7.22;2.20;;;14.40;99.90;;;;;;5050300;28;20031;-45
2022/07/10 06:12:47;;;;;;;10.00;1.85;;;14.60;99.90;;;;;;5050382;28;20040;-45
2022/07/10 06:15:13;;;;;;;12.57;2.17;;;14.70;99.90;;;;;;5049794;28;20264;-46
2022/07/10 06:17:38;;;;;;;9.00;2.40;;;14.80;99.90;;;;;;5047479;28;20041;-46
2022/07/10 06:20:04;;;;;;;8.93;2.03;;;14.90;99.90;;;;;;5041978;28;20021;-45
2022/07/10 06:22:30;;;;;;;5.88;1.65;;;14.90;99.90;;;;;;5050140;28;20058;-46
2022/07/10 06:24:56;;;;;;;10.23;1.92;;;14.90;99.90;;;;;;5049651;28;20052;-46
2022/07/10 06:27:22;;;;;;;12.45;2.22;;;15.00;99.90;;;;;;5050264;28;20029;-46
2022/07/10 06:29:48;;;;;;;10.38;2.10;;;15.00;99.90;;;;;;5050398;28;20082;-46
2022/07/10 06:32:13;;;;;;;8.27;2.53;;;15.00;99.90;;;;;;5049958;28;20036;-45
2022/07/10 06:34:39;;;;;;;9.93;2.15;;;15.10;99.90;;;;;;5049923;28;20029;-46
2022/07/10 06:37:05;;;;;;;7.80;2.55;;;15.20;99.90;;;;;;5050112;28;20560;-46
2022/07/10 06:39:36;;;;;;;9.30;2.25;;;15.20;99.90;;;;;;5050335;28;20025;-47
2022/07/10 06:42:05;;;;;;;6.50;2.30;;;15.20;99.90;;;;;;5049894;28;20037;-46
2022/07/10 06:44:31;;;;;;;11.07;2.38;;;15.40;99.90;;;;;;5048584;28;20033;-46
2022/07/10 06:49:43;;;;;;;12.40;2.58;;;15.60;99.90;;;;;;5038771;28;20099;-47
2022/07/10 06:52:08;;;;;;;8.82;1.63;;;15.70;99.90;;;;;;5050000;28;20462;-46
2022/07/10 06:54:34;;;;;;;9.38;2.40;;;15.80;99.90;;;;;;5049084;28;20082;-48
2022/07/10 06:57:00;;;;;;;13.93;2.28;;;15.70;99.90;;;;;;5049483;28;20037;-46
2022/07/10 06:59:27;;;;;;;11.73;2.45;;;15.80;99.90;;;;;;5050070;28;20029;-47
2022/07/10 07:01:52;;;;;;;8.35;2.00;;;15.80;99.90;;;;;;5049456;28;20025;-47
2022/07/10 07:04:18;;;;;;;13.95;2.78;;;15.80;99.90;;;;;;5048803;28;20025;-45
2022/07/10 07:06:43;;;;;;;8.50;2.17;;;15.90;99.90;;;;;;5049492;28;20517;-46
2022/07/10 07:09:09;;;;;;;5.68;2.30;;;15.90;99.90;;;;;;5049467;28;20021;-47
2022/07/10 07:11:34;;;;;;;11.02;2.35;;;16.00;99.90;;;;;;5049227;28;20029;-48
2022/07/10 07:13:59;;;;;;;8.13;2.65;;;16.00;99.90;;;;;;5048981;28;20529;-46
2022/07/10 07:16:38;;;;;;;11.57;2.95;;;15.90;99.90;;;;;;5049326;28;20107;-46
2022/07/10 07:19:04;;;;;;;12.30;2.60;;;15.90;99.90;;;;;;5042377;28;20309;-46
2022/07/10 07:24:15;;;;;;;11.05;2.70;;;16.20;99.90;;;;;;5048743;28;20130;-46
2022/07/10 07:26:40;;;;;;;10.00;2.17;;;16.40;99.90;;;;;;5048975;28;20063;-47
2022/07/10 07:29:06;;;;;;;14.55;2.85;;;16.60;99.90;;;;;;5049087;28;20021;-46
2022/07/10 07:31:31;;;;;;;8.65;2.55;;;16.80;99.90;;;;;;5049086;28;20390;-46
2022/07/10 07:33:57;;;;;;;12.15;2.30;;;16.90;99.90;;;;;;5048800;28;20033;-45
2022/07/10 07:36:23;;;;;;;11.35;2.83;;;16.70;99.90;;;;;;5048632;28;20391;-46
2022/07/10 07:38:48;;;;;;;9.35;2.33;;;16.90;99.90;;;;;;5049280;28;20033;-47
2022/07/10 07:41:15;;;;;;;13.80;2.72;;;17.00;99.90;;;;;;5048468;28;20470;-47
2022/07/10 07:43:40;;;;;;;8.30;2.28;;;17.20;99.90;;;;;;5048830;28;20017;-46
2022/07/10 07:46:06;;;;;;;13.48;2.47;;;17.40;99.90;;;;;;5048243;28;20188;-46
2022/07/10 07:48:31;;;;;;;8.02;1.70;;;17.50;99.90;;;;;;5046366;28;20378;-47
2022/07/10 07:50:57;;;;;;;14.85;2.45;;;17.70;99.90;;;;;;5041438;28;20021;-46
2022/07/10 07:53:23;;;;;;;12.30;2.80;;;17.90;99.90;;;;;;5048911;28;20024;-46
2022/07/10 07:55:49;;;;;;;10.20;2.70;;;17.80;99.90;;;;;;5048055;28;20044;-47
2022/07/10 07:58:14;;;;;;;10.07;2.58;;;17.50;99.90;;;;;;5048569;28;20052;-46
2022/07/10 08:00:40;;;;;;;7.20;2.10;;;17.30;99.90;;;;;;5048534;28;20037;-46
2022/07/10 08:03:05;;;;;;;14.68;3.58;;;17.10;99.90;;;;;;5048850;28;20030;-48
2022/07/10 08:05:31;;;;;;;11.68;2.80;;;16.80;99.90;;;;;;5047914;28;20029;-50
2022/07/10 08:08:01;;;;;;;12.57;2.60;;;16.60;99.90;;;;;;5048976;28;20251;-46
2022/07/10 08:10:27;;;;;;;12.65;2.53;;;16.60;99.90;;;;;;5048816;28;20544;-46
2022/07/10 08:12:52;;;;;;;9.85;3.00;;;16.60;99.90;;;;;;5048456;28;20125;-46
2022/07/10 08:15:23;;;;;;;11.15;2.60;;;16.90;99.90;;;;;;5047954;28;20115;-48
2022/07/10 08:17:55;;;;;;;12.85;2.92;;;17.00;99.90;;;;;;5045356;28;20678;-47
2022/07/10 08:20:21;;;;;;;11.43;2.97;;;17.20;99.90;;;;;;5040170;28;20051;-46
2022/07/10 08:22:48;;;;;;;14.38;3.17;;;17.20;99.90;;;;;;5048314;28;20410;-46
2022/07/10 08:25:13;;;;;;;9.85;2.40;;;17.30;99.90;;;;;;5047933;28;20052;-46
2022/07/10 08:27:39;;;;;;;12.52;2.90;;;17.60;99.90;;;;;;5048696;28;20052;-46
2022/07/10 08:30:05;;;;;;;11.15;2.85;;;18.40;98.40;;;;;;5048264;28;20037;-47
2022/07/10 08:32:31;;;;;;;9.63;2.50;;;19.30;97.10;;;;;;5048232;28;20031;-49
2022/07/10 08:34:58;;;;;;;10.82;2.33;;;20.40;95.10;;;;;;5046343;28;20115;-47
2022/07/10 08:37:24;;;;;;;12.50;1.98;;;21.70;92.10;;;;;;5047896;28;20021;-47
2022/07/10 08:39:51;;;;;;;7.00;2.88;;;21.90;90.80;;;;;;5048194;28;20363;-48
2022/07/10 08:42:18;;;;;;;6.15;2.15;;;22.10;89.70;;;;;;5048162;28;20512;-47
2022/07/10 08:44:44;;;;;;;6.90;2.17;;;22.00;88.40;;;;;;5046284;28;20029;-46
2022/07/10 08:47:11;;;;;;;6.47;2.40;;;21.90;88.20;;;;;;5048323;28;20024;-48
2022/07/10 08:49:37;;;;;;;9.88;2.53;;;21.30;90.00;;;;;;5037910;28;20017;-47
2022/07/10 08:52:05;;;;;;;9.18;2.83;;;20.70;89.80;;;;;;5048096;28;20035;-47
2022/07/10 08:54:33;;;;;;;12.40;2.20;;;19.80;91.40;;;;;;5047454;28;20029;-47
2022/07/10 08:57:02;;;;;;;11.70;3.50;;;19.30;92.10;;;;;;5047734;28;20417;-50
2022/07/10 08:59:29;;;;;;;11.77;2.53;;;18.70;92.80;;;;;;5048190;28;20028;-44
2022/07/10 09:01:55;;;;;;;8.95;2.65;;;18.50;93.20;;;;;;5047945;28;20137;-49
2022/07/10 09:04:23;;;;;;;10.30;2.25;;;18.20;93.90;;;;;;5047398;28;20156;-44
2022/07/10 09:06:50;;;;;;;9.25;2.45;;;19.40;93.80;;;;;;5048817;28;20039;-48
2022/07/10 09:09:17;;;;;;;8.40;2.40;;;20.20;91.60;;;;;;5051667;28;20032;-48
2022/07/10 09:11:43;;;;;;;15.13;2.70;;;20.70;90.80;;;;;;5051731;28;20040;-46
2022/07/10 09:14:14;;;;;;;6.63;2.35;;;21.00;90.20;;;;;;5051265;28;20033;-48
2022/07/10 09:16:45;;;;;;;6.32;2.05;;;22.60;88.30;;;;;;5051594;28;20036;-46
2022/07/10 09:19:22;;;;;;;7.57;2.40;;;24.50;83.20;;;;;;5042434;28;20502;-46
2022/07/10 09:21:54;;;;;;;6.90;2.13;;;24.60;76.90;;;;;;5050974;28;20036;-49
2022/07/10 09:24:21;;;;;;;8.63;2.03;;;23.80;76.80;;;;;;5050790;28;20033;-46
2022/07/10 09:26:55;;;;;;;10.98;3.65;;;23.00;78.90;;;;;;5051255;28;20041;-46
2022/07/10 09:29:21;;;;;;;5.10;2.30;;;22.70;80.60;;;;;;5051380;28;20121;-45
2022/07/10 09:32:01;;;;;;;5.55;1.95;;;21.70;80.00;;;;;;5051190;28;20056;-46
2022/07/10 09:34:40;;;;;;;8.40;2.70;;;21.00;82.20;;;;;;5050531;28;20437;-48
2022/07/10 09:37:19;;;;;;;9.68;2.80;;;20.40;84.20;;;;;;5051360;28;20363;-48
2022/07/10 09:39:57;;;;;;;10.00;2.70;;;20.00;85.90;;;;;;5051337;28;20075;-45
2022/07/10 09:42:36;;;;;;;16.73;2.85;;;19.90;86.30;;;;;;5050905;28;20620;-48
2022/07/10 09:45:11;;;;;;;8.05;2.30;;;19.40;87.90;;;;;;5050492;28;20436;-47
2022/07/10 09:47:37;;;;;;;7.40;2.40;;;19.40;88.50;;;;;;5049066;28;20113;-47
2022/07/10 09:50:04;;;;;;;17.20;3.42;;;19.20;90.00;;;;;;5042518;28;20048;-47
2022/07/10 09:52:29;;;;;;;8.27;2.60;;;19.90;88.90;;;;;;5051095;28;20500;-49
2022/07/10 09:55:00;;;;;;;8.52;2.63;;;21.80;85.30;;;;;;5048834;28;20033;-46
2022/07/10 09:57:29;;;;;;;9.55;2.47;;;23.90;79.70;;;;;;5050636;28;20043;-47
2022/07/10 09:59:56;;;;;;;7.47;2.10;;;24.80;75.50;;;;;;5050705;28;20192;-46
2022/07/10 10:02:22;;;;;;;6.95;2.40;;;24.60;72.80;;;;;;5043367;28;20040;-49
2022/07/10 10:04:49;;;;;;;9.43;2.90;;;23.40;73.50;;;;;;5040278;28;20025;-46
2022/07/10 10:07:18;;;;;;;10.38;2.50;;;22.50;75.60;;;;;;5049318;28;20482;-46
2022/07/10 10:09:53;;;;;;;9.10;2.53;;;22.50;75.60;;;;;;5050461;28;20066;-47
2022/07/10 10:12:49;;;;;;;8.85;2.20;;;23.80;75.50;;;;;;5050579;28;20481;-47
2022/07/10 10:15:15;;;;;;;6.30;2.28;;;25.00;74.30;;;;;;5049596;28;20061;-48
2022/07/10 10:17:42;;;;;;;11.13;3.08;;;26.20;70.90;;;;;;5049793;28;20037;-48
2022/07/10 10:22:55;;;;;;;9.32;2.17;;;27.40;66.40;;;;;;5050456;28;20031;-47
2022/07/10 10:25:23;;;;;;;7.95;2.05;;;27.20;64.20;;;;;;5049955;28;20070;-47
2022/07/10 10:27:49;;;;;;;9.05;2.50;;;28.30;63.80;;;;;;5049194;28;20100;-49
2022/07/10 10:30:15;;;;;;;13.05;2.20;;;27.30;62.50;;;;;;5050220;28;20017;-48
2022/07/10 10:32:41;;;;;;;8.07;2.60;;;26.90;63.20;;;;;;5041637;28;20036;-47
2022/07/10 10:35:09;;;;;;;7.10;2.33;;;27.20;60.50;;;;;;5043007;28;20117;-46
2022/07/10 10:37:37;;;;;;;6.32;2.20;;;26.60;61.50;;;;;;5050240;28;20021;-46
2022/07/10 10:40:07;;;;;;;4.95;2.30;;;26.60;63.40;;;;;;5050047;28;20052;-48
2022/07/10 10:42:38;;;;;;;8.50;2.00;;;27.30;61.30;;;;;;5049905;28;20048;-48
2022/07/10 10:45:29;;;;;;;8.73;2.00;;;28.60;57.60;;;;;;5049696;28;20024;-46
2022/07/10 10:48:14;;;;;;;9.48;1.83;;;29.10;57.00;;;;;;5049765;28;20028;-48
2022/07/10 10:50:47;;;;;;;7.53;2.00;;;28.10;54.80;;;;;;5049817;28;20411;-48
2022/07/10 10:53:16;;;;;;;7.78;2.60;;;26.80;57.60;;;;;;5049637;28;20029;-48
2022/07/10 10:56:03;;;;;;;10.45;2.97;;;25.10;61.70;;;;;;5049094;28;20033;-46
2022/07/10 10:58:37;;;;;;;9.73;2.70;;;23.30;64.90;;;;;;5046098;28;20064;-46
2022/07/10 11:01:04;;;;;;;9.05;2.47;;;22.90;67.40;;;;;;5047160;28;20021;-47
2022/07/10 11:03:29;;;;;;;10.27;2.50;;;22.90;67.10;;;;;;5037725;28;20013;-46
2022/07/10 11:05:55;;;;;;;6.05;2.10;;;23.30;67.30;;;;;;5049363;28;20056;-46
2022/07/10 11:08:38;;;;;;;11.75;2.47;;;24.20;65.30;;;;;;5049817;28;20124;-47
2022/07/10 11:11:31;;;;;;;6.82;2.17;;;25.50;62.60;;;;;;5048129;28;20025;-48
2022/07/10 11:13:57;;;;;;;8.95;2.30;;;26.40;58.40;;;;;;5049196;28;20416;-48
2022/07/10 11:16:24;;;;;;;11.85;2.47;;;27.30;57.90;;;;;;5048662;28;20029;-46
2022/07/10 11:18:54;;;;;;;5.95;1.92;;;27.90;57.40;;;;;;5049229;28;20048;-46
2022/07/10 11:21:25;;;;;;;6.63;2.45;;;28.30;56.60;;;;;;5049117;28;20549;-46
2022/07/10 11:24:19;;;;;;;11.45;2.40;;;28.70;55.40;;;;;;5048919;28;20032;-47
2022/07/10 11:27:26;;;;;;;4.55;1.85;;;28.10;55.50;;;;;;5049118;28;20018;-47
2022/07/10 11:30:01;;;;;;;7.38;2.15;;;27.10;55.70;;;;;;5048853;28;20118;-47
2022/07/10 11:32:28;;;;;;;12.75;2.63;;;25.90;57.00;;;;;;5041240;28;20028;-48
2022/07/10 11:34:55;;;;;;;8.85;2.60;;;24.70;59.70;;;;;;5032126;28;20029;-46
2022/07/10 11:37:20;;;;;;;11.23;2.72;;;24.30;60.70;;;;;;5049068;28;20031;-48
2022/07/10 11:39:46;;;;;;;7.53;2.42;;;24.70;60.40;;;;;;5048940;28;20397;-50
2022/07/10 11:42:11;;;;;;;5.65;2.67;;;24.00;60.80;;;;;;5048708;28;20037;-50
2022/07/10 11:44:37;;;;;;;8.13;2.35;;;24.70;61.80;;;;;;5048142;28;20021;-46
2022/07/10 11:47:04;;;;;;;9.13;2.25;;;25.50;61.30;;;;;;5048689;28;20441;-48
2022/07/10 11:49:29;;;;;;;11.93;2.78;;;26.40;58.40;;;;;;5048745;28;20025;-47
2022/07/10 11:52:02;;;;;;;10.10;2.72;;;27.00;57.10;;;;;;5048477;28;20723;-46
2022/07/10 11:54:27;;;;;;;6.05;2.30;;;27.90;55.70;;;;;;5046688;28;20116;-45
2022/07/10 11:56:53;;;;;;;10.52;2.50;;;28.40;57.60;;;;;;5048677;28;20428;-46
2022/07/10 11:59:24;;;;;;;10.05;2.47;;;28.30;54.70;;;;;;5049059;28;20040;-46
2022/07/10 12:01:51;;;;;;;7.63;2.03;;;27.00;54.70;;;;;;5042062;28;20052;-46
2022/07/10 12:04:19;;;;;;;6.68;2.40;;;27.60;58.00;;;;;;5039463;28;20048;-46
2022/07/10 12:06:46;;;;;;;10.27;1.77;;;27.50;55.60;;;;;;5048896;28;20112;-45
2022/07/10 12:09:14;;;;;;;8.50;2.08;;;27.20;54.20;;;;;;5048552;28;20548;-45
2022/07/10 12:11:40;;;;;;;8.20;1.92;;;26.70;53.70;;;;;;5048400;28;20108;-46
2022/07/10 12:14:14;;;;;;;6.60;1.95;;;25.70;54.90;;;;;;5047706;28;20033;-45
2022/07/10 12:16:42;;;;;;;6.63;2.60;;;24.40;58.90;;;;;;5048346;28;20260;-47
2022/07/10 12:19:08;;;;;;;11.50;2.33;;;23.30;60.50;;;;;;5049184;28;20028;-49
2022/07/10 12:21:35;;;;;;;8.23;2.78;;;23.40;61.00;;;;;;5048466;28;20036;-46
2022/07/10 12:24:02;;;;;;;5.63;1.90;;;24.10;62.90;;;;;;5047941;28;20032;-47
2022/07/10 12:26:36;;;;;;;6.40;2.05;;;24.90;62.20;;;;;;5047147;28;20060;-47
2022/07/10 12:29:02;;;;;;;7.00;2.25;;;25.00;60.20;;;;;;5048401;28;20087;-49
2022/07/10 12:31:37;;;;;;;8.30;2.33;;;24.80;57.70;;;;;;5041867;28;20079;-47
2022/07/10 12:34:05;;;;;;;11.15;2.72;;;24.40;60.30;;;;;;5035837;28;20129;-46
2022/07/10 12:36:53;;;;;;;7.60;2.00;;;24.20;60.40;;;;;;5028320;28;20479;-47
2022/07/10 12:39:21;;;;;;;8.63;1.77;;;23.90;59.10;;;;;;5028399;28;20083;-47
2022/07/10 12:42:06;;;;;;;10.40;2.15;;;24.40;61.60;;;;;;5028818;28;20264;-47
2022/07/10 12:44:39;;;;;;;6.32;1.92;;;25.00;60.10;;;;;;5031850;28;20076;-50
2022/07/10 12:47:14;;;;;;;8.50;1.98;;;25.10;59.00;;;;;;5032236;28;20029;-45
2022/07/10 12:50:02;;;;;;;5.20;2.17;;;24.60;59.60;;;;;;5032190;28;20659;-48
2022/07/10 12:52:36;;;;;;;10.23;2.03;;;23.80;60.50;;;;;;5031991;28;20120;-47
2022/07/10 12:55:16;;;;;;;5.93;2.28;;;23.60;64.00;;;;;;5031463;28;20087;-46
2022/07/10 12:57:58;;;;;;;12.48;2.08;;;24.00;62.80;;;;;;5031927;28;20343;-48